Jhelum Weather



Jhelum's Current Weather

Temprature 27.05o clear sky

clear sky

Rain: 0 %

Min Temprature27.05o
Max Temprature27.05o
Humidity65
Wind Speed0.69 m/h
Sun Rise05:33:26
Sun Set18:42:47
Current Time: 23-Aug-2019 05:46:59
Lat/Lon: 32.94, 73.72




Jhelum's Geo Location



Jhelum's Weather Forecast

Time Overall Temp Min Temp Max Temp Humidity Wind Speed Rain
23-Aug-2019 (Fri)
08:00:00 clear sky 29.950 29.947 29.950 55 1.66 m/h 0 %
11:00:00 clear sky 35.150 35.150 35.150 39 0.44 m/h 0 %
14:00:00 clear sky 38.030 38.030 38.031 29 2.67 m/h 0 %
17:00:00 clear sky 38.210 38.210 38.211 27 3.67 m/h 0 %
20:00:00 clear sky 32.950 32.950 32.950 39 1.32 m/h 0 %
23:00:00 clear sky 30.842 30.842 30.842 46 1.39 m/h 0 %
24-Aug-2019 (Sat)
02:00:00 clear sky 28.731 28.731 28.731 57 1.98 m/h 0 %
05:00:00 clear sky 27.655 27.655 27.655 62 1.97 m/h 0 %
08:00:00 clear sky 30.867 30.867 30.867 51 1.89 m/h 0 %
11:00:00 clear sky 35.869 35.869 35.869 37 2.05 m/h 0 %
14:00:00 clear sky 39.269 39.269 39.269 27 0.18 m/h 0 %
17:00:00 clear sky 39.123 39.123 39.123 26 2.6 m/h 0 %
20:00:00 clear sky 33.650 33.650 33.650 39 1.84 m/h 0 %
23:00:00 clear sky 31.669 31.669 31.669 45 1.16 m/h 0 %
25-Aug-2019 (Sun)
02:00:00 clear sky 29.731 29.731 29.731 51 2.03 m/h 0 %
05:00:00 clear sky 28.257 28.257 28.257 59 2.3 m/h 0 %
08:00:00 clear sky 31.414 31.414 31.414 51 3.82 m/h 0 %
11:00:00 clear sky 36.216 36.216 36.216 38 4.93 m/h 0 %
14:00:00 clear sky 38.650 38.650 38.650 30 2.64 m/h 0 %
17:00:00 clear sky 39.150 39.150 39.150 26 1.45 m/h 0 %
20:00:00 clear sky 32.881 32.881 32.881 47 2.75 m/h 0 %
23:00:00 clear sky 30.711 30.711 30.711 57 3.79 m/h 0 %
26-Aug-2019 (Mon)
02:00:00 clear sky 29.165 29.165 29.165 67 4.24 m/h 0 %
05:00:00 clear sky 27.350 27.350 27.350 77 4.44 m/h 0 %
08:00:00 clear sky 29.967 29.967 29.967 62 4.92 m/h 0 %
11:00:00 clear sky 35.172 35.172 35.172 44 5.93 m/h 0 %
14:00:00 clear sky 37.484 37.484 37.484 36 4.25 m/h 0 %
17:00:00 clear sky 37.220 37.220 37.220 34 2.96 m/h 0 %
20:00:00 clear sky 32.472 32.472 32.472 48 3.29 m/h 0 %
23:00:00 clear sky 30.314 30.314 30.314 56 1.73 m/h 0 %
27-Aug-2019 (Tue)
02:00:00 overcast clouds 29.316 29.316 29.316 60 1.12 m/h 0 %
05:00:00 broken clouds 28.450 28.450 28.450 61 0.98 m/h 0 %
08:00:00 scattered clouds 31.135 31.135 31.135 54 2.21 m/h 0 %
11:00:00 scattered clouds 35.836 35.836 35.836 41 1.73 m/h 0 %
14:00:00 clear sky 39.036 39.036 39.036 32 0.64 m/h 0 %
17:00:00 scattered clouds 38.665 38.665 38.665 30 2.41 m/h 0 %
20:00:00 broken clouds 33.350 33.350 33.350 45 1.94 m/h 0 %
23:00:00 broken clouds 31.550 31.550 31.550 53 1.81 m/h 0 %
28-Aug-2019 (Wed)
02:00:00 broken clouds 30.257 30.257 30.257 57 1.66 m/h 0 %
05:00:00 light rain 28.872 28.872 28.872 64 1.52 m/h 44 %

Famous Cities (61)